Airfield :
LOGIN :

Register | Disclaimer

   EN    FR    IT 

 










Legend :    VFR   Marginal VFR   IFR   Intensive IFR   Very Intensive IFR
Visi :
Ceiling :
>= 8 km
>= 3000ft
5 to 8 km
1000 to 3000 ft
1500m to 5 km
500 to 1000 ft
800 to 1500m
200 to 500 ft
< 800m
< 200 ft
Symbols :   Thunderstorms  Fog  Heavy snow  Heavy precipitations  Wind > 20 kt
SIGMETs :     Misc.  Thunderstorms  Icing  Turbulence  Mountain Waves  Volcanic Ashes







- Airport Elevation : 755 ft
- IATA code : DRS


EDDC - Dresden Klotzsche

CURRENT METAR :
  • 172320Z 25002KT 9999 FEW018 OVC039 M01/M01 Q1023 R04/29//95

EXPIRED METARs :
  • 172250Z 26003KT 9999 FEW027 OVC040 M01/M01 Q1023 R04/29//95
  • 172220Z 25002KT 9999 FEW030 OVC041 M01/M01 Q1023 R04/29//95
  • 172150Z 23002KT 9999 -SN FEW028 OVC038 M01/M01 Q1023 R04/29//95
  • 172120Z 26003KT 230V300 9999 SCT020 OVC040 M01/M01 Q1023 R04/29//95
  • 172050Z 27003KT 240V300 9999 SCT020 OVC043 M01/M01 Q1022 R04/29//95 NOSIG
  • 172020Z 27004KT 240V310 9999 FEW020 BKN040 M01/M01 Q1022 R04/29//95 NOSIG

TAF TAF EDDC
Valid from the 17 at 18:00 until the 18 at 18:00 UTC


171700Z 1718/1818 30004KT 9999 BKN025
PROB30
TEMPO 1718/1724 BKN012
BECMG 1800/1803 15005KT
No reported NOTAMs for that airfield.



MET'MAP, your aeronautical weather chart ! - Copyright ORBIFLY December 2007 - Disclaimer

ORBIFLY MET'MAP TEAM :

Programming & Development : Alexandra Zaïnal
Concept & Development : Baudouin d'Aumeries
Co-Development & Prog : Marc-Olivier Méhu
Technical & hardware support : Manuel Goepfert

Contact : metmap@orbifly.com




SOURCES & CREDITS :

   NOAA